Time;durP1;ratioP1;P1;durP2;ratioP2;P2;SDS_P1;SDS_P2;PMS_P1;PMS_P2;Temp;Humidity;BMP_temperature;BMP_pressure;BME280_temperature;BME280_humidity;BME280_pressure;Samples;Min_cycle;Max_cycle;Signal;HPM_P1;HPM_P2
2022/07/26 00:01:57;;;;;;;11.38;9.45;;;29.90;94.20;;;;;;5092631;28;20058;-70
2022/07/26 00:04:25;;;;;;;11.30;8.65;;;29.90;94.30;;;;;;5075878;28;20047;-70
2022/07/26 00:06:53;;;;;;;10.75;8.65;;;29.90;94.50;;;;;;5076195;28;20142;-70
2022/07/26 00:09:21;;;;;;;11.75;9.82;;;29.90;94.70;;;;;;5110562;28;20044;-70
2022/07/26 00:11:49;;;;;;;10.15;8.23;;;29.90;94.90;;;;;;5111105;28;20040;-70
2022/07/26 00:14:17;;;;;;;13.35;9.07;;;29.90;95.00;;;;;;5092885;28;20082;-70
2022/07/26 00:16:44;;;;;;;10.32;8.52;;;29.90;95.00;;;;;;5092736;28;20059;-70
2022/07/26 00:19:12;;;;;;;10.88;9.40;;;29.80;95.10;;;;;;5109439;28;20032;-70
2022/07/26 00:21:40;;;;;;;10.52;9.43;;;29.80;95.20;;;;;;5092294;28;20058;-70
2022/07/26 00:24:08;;;;;;;11.30;8.43;;;29.80;95.10;;;;;;5128489;27;20051;-70
2022/07/26 00:26:35;;;;;;;9.50;8.60;;;29.80;95.10;;;;;;5096174;28;20532;-70
2022/07/26 00:29:04;;;;;;;11.00;8.43;;;29.80;95.20;;;;;;5113078;28;20040;-70
2022/07/26 00:31:32;;;;;;;10.02;8.93;;;29.80;95.10;;;;;;5112894;28;20367;-70
2022/07/26 00:33:59;;;;;;;10.75;8.95;;;29.80;95.10;;;;;;5112952;28;20046;-70
2022/07/26 00:36:28;;;;;;;10.50;8.55;;;29.80;95.10;;;;;;5113079;28;20108;-70
2022/07/26 00:38:56;;;;;;;11.55;7.97;;;29.80;95.30;;;;;;5120122;27;20051;-69
2022/07/26 00:41:23;;;;;;;9.45;8.32;;;29.80;95.40;;;;;;5134976;27;20050;-70
2022/07/26 00:43:59;;;;;;;12.75;9.38;;;29.90;95.40;;;;;;5132857;27;20119;-70
2022/07/26 00:46:26;;;;;;;;;;;29.90;95.60;;;;;;5134829;27;20055;-70
2022/07/26 00:48:54;;;;;;;8.57;7.68;;;29.90;95.60;;;;;;5133191;27;20285;-70
2022/07/26 00:51:22;;;;;;;10.13;9.13;;;29.90;95.70;;;;;;5131602;27;20050;-70
2022/07/26 00:53:50;;;;;;;12.05;9.60;;;29.90;95.80;;;;;;5115465;27;20137;-70
2022/07/26 00:56:18;;;;;;;12.23;9.07;;;29.90;95.90;;;;;;5101078;27;20051;-70
2022/07/26 00:58:45;;;;;;;10.48;8.57;;;29.90;96.20;;;;;;5115995;27;20050;-70
2022/07/26 01:01:13;;;;;;;11.48;8.68;;;29.90;96.30;;;;;;5116314;27;20096;-70
2022/07/26 01:03:41;;;;;;;10.30;8.85;;;29.80;96.60;;;;;;5098742;27;20079;-70
2022/07/26 01:06:08;;;;;;;13.80;10.00;;;29.80;96.90;;;;;;5098599;27;20420;-70
2022/07/26 01:08:36;;;;;;;10.00;8.98;;;29.80;97.30;;;;;;5115302;27;20497;-70
2022/07/26 01:11:04;;;;;;;10.35;8.18;;;29.80;97.10;;;;;;5149763;27;20046;-70
2022/07/26 01:13:33;;;;;;;12.48;8.88;;;29.80;97.10;;;;;;5135382;27;20493;-70
2022/07/26 01:16:02;;;;;;;10.57;9.02;;;29.80;97.30;;;;;;5154401;27;20590;-70
2022/07/26 01:18:29;;;;;;;10.00;9.00;;;29.80;97.40;;;;;;5135850;27;20039;-70
2022/07/26 01:21:00;;;;;;;11.13;9.18;;;29.80;97.50;;;;;;5136360;27;20038;-70
2022/07/26 01:23:29;;;;;;;9.27;8.38;;;29.80;97.60;;;;;;5153633;27;20053;-70
2022/07/26 01:25:57;;;;;;;10.48;9.18;;;29.80;97.70;;;;;;5134284;27;20054;-70
2022/07/26 01:28:25;;;;;;;11.88;8.98;;;29.70;97.60;;;;;;5135146;27;20042;-70
2022/07/26 01:30:52;;;;;;;11.23;8.98;;;29.70;97.60;;;;;;5153535;27;20042;-72
2022/07/26 01:33:21;;;;;;;9.75;8.85;;;29.70;97.50;;;;;;5118191;27;20051;-72
2022/07/26 01:35:48;;;;;;;10.82;9.48;;;29.70;97.40;;;;;;5134829;27;20051;-72
2022/07/26 01:38:16;;;;;;;10.18;8.80;;;29.60;97.30;;;;;;5156376;27;20035;-72
2022/07/26 01:40:43;;;;;;;10.25;8.52;;;29.60;97.20;;;;;;5156322;27;20090;-72
2022/07/26 01:43:11;;;;;;;10.40;9.02;;;29.50;97.20;;;;;;5139507;27;20238;-72
2022/07/26 01:45:39;;;;;;;10.00;8.65;;;29.50;97.50;;;;;;5139575;27;20133;-72
2022/07/26 01:48:07;;;;;;;12.13;8.82;;;29.50;97.40;;;;;;5156539;27;20113;-72
2022/07/26 01:50:36;;;;;;;12.43;9.43;;;29.40;97.50;;;;;;5174945;27;20038;-72
2022/07/26 01:53:04;;;;;;;9.40;8.43;;;29.40;97.70;;;;;;5156465;27;20571;-70
2022/07/26 01:55:32;;;;;;;11.40;9.48;;;29.40;98.00;;;;;;5156086;27;20403;-70
2022/07/26 01:57:59;;;;;;;10.65;8.88;;;29.40;98.20;;;;;;5156204;27;20433;-70
2022/07/26 02:00:27;;;;;;;11.32;9.65;;;29.40;98.30;;;;;;5156373;27;20038;-70
2022/07/26 02:02:55;;;;;;;12.10;9.25;;;29.40;98.50;;;;;;5154699;27;20056;-71
2022/07/26 02:05:23;;;;;;;13.43;9.80;;;29.40;98.60;;;;;;5174714;27;20399;-70
2022/07/26 02:07:50;;;;;;;11.35;9.98;;;29.40;98.80;;;;;;5156064;27;20101;-70
2022/07/26 02:10:18;;;;;;;11.20;8.20;;;29.40;98.90;;;;;;5155811;27;20529;-70
2022/07/26 02:12:46;;;;;;;10.77;9.10;;;29.40;98.90;;;;;;5155420;27;20057;-70
2022/07/26 02:15:14;;;;;;;10.75;9.65;;;29.30;98.90;;;;;;5155911;27;20125;-70
2022/07/26 02:17:42;;;;;;;10.30;9.30;;;29.30;99.00;;;;;;5155477;27;20049;-70
2022/07/26 02:20:10;;;;;;;10.50;9.27;;;29.30;99.00;;;;;;5138703;27;20069;-70
2022/07/26 02:22:38;;;;;;;11.27;9.55;;;29.30;99.00;;;;;;5138721;27;20121;-70
2022/07/26 02:25:05;;;;;;;11.07;9.90;;;29.30;98.90;;;;;;5173941;27;20070;-70
2022/07/26 02:27:33;;;;;;;11.48;8.80;;;29.30;98.90;;;;;;5155434;27;20042;-70
2022/07/26 02:30:01;;;;;;;11.88;9.50;;;29.30;99.00;;;;;;5120631;27;20471;-71
2022/07/26 02:32:29;;;;;;;10.88;9.18;;;29.30;98.90;;;;;;5155611;27;20059;-71
2022/07/26 02:34:56;;;;;;;10.30;9.30;;;29.20;98.70;;;;;;5155248;27;20495;-71
2022/07/26 02:37:24;;;;;;;10.07;8.57;;;29.20;98.60;;;;;;5154047;27;20460;-71
2022/07/26 02:39:51;;;;;;;11.07;9.50;;;29.20;98.50;;;;;;5173097;27;20078;-72
2022/07/26 02:42:19;;;;;;;9.75;8.85;;;29.10;98.30;;;;;;5173636;27;20146;-72
2022/07/26 02:44:47;;;;;;;11.52;8.63;;;29.10;98.20;;;;;;5137237;27;20054;-71
2022/07/26 02:47:14;;;;;;;13.15;9.27;;;29.00;97.90;;;;;;5153972;27;20544;-71
2022/07/26 02:49:42;;;;;;;9.65;8.55;;;29.10;97.70;;;;;;5138311;27;20042;-71
2022/07/26 02:52:10;;;;;;;10.02;8.82;;;29.10;97.50;;;;;;5153892;27;20793;-71
2022/07/26 02:54:37;;;;;;;12.43;9.00;;;29.10;97.30;;;;;;5136742;27;20050;-71
2022/07/26 02:57:05;;;;;;;10.05;7.90;;;29.10;97.30;;;;;;5154691;27;20053;-71
2022/07/26 02:59:32;;;;;;;9.70;8.57;;;29.10;97.40;;;;;;5135744;27;20042;-71
2022/07/26 03:02:00;;;;;;;11.00;8.15;;;29.10;97.40;;;;;;5123983;27;20571;-71
2022/07/26 03:04:28;;;;;;;9.98;8.60;;;29.20;97.50;;;;;;5129895;27;20447;-71
2022/07/26 03:06:55;;;;;;;10.95;9.18;;;29.20;97.50;;;;;;5136922;27;20472;-71
2022/07/26 03:09:23;;;;;;;10.77;9.43;;;29.20;97.40;;;;;;5172687;27;20129;-72
2022/07/26 03:11:51;;;;;;;10.63;8.55;;;29.20;97.30;;;;;;5153413;27;20034;-72
2022/07/26 03:14:18;;;;;;;10.90;9.80;;;29.20;97.40;;;;;;5153881;27;20054;-72
2022/07/26 03:16:46;;;;;;;11.60;10.15;;;29.20;97.30;;;;;;5154294;27;20522;-72
2022/07/26 03:19:13;;;;;;;13.00;10.05;;;29.20;97.40;;;;;;5153959;27;20045;-72
2022/07/26 03:21:41;;;;;;;10.80;9.70;;;29.20;97.50;;;;;;5153524;27;20038;-72
2022/07/26 03:24:09;;;;;;;12.82;9.55;;;29.20;97.50;;;;;;5137249;27;20138;-72
2022/07/26 03:26:36;;;;;;;10.90;9.80;;;29.10;97.60;;;;;;5154692;27;20081;-72
2022/07/26 03:29:04;;;;;;;13.10;9.65;;;29.10;97.70;;;;;;5172983;27;20038;-72
2022/07/26 03:31:32;;;;;;;14.65;11.18;;;29.10;97.70;;;;;;5154504;27;20488;-72
2022/07/26 03:33:59;;;;;;;16.08;10.38;;;29.10;97.60;;;;;;5135619;27;20524;-72
2022/07/26 03:36:29;;;;;;;13.30;10.15;;;29.00;97.70;;;;;;5154937;27;20141;-72
2022/07/26 03:38:56;;;;;;;11.55;10.45;;;29.00;97.90;;;;;;5154459;27;20092;-73
2022/07/26 03:41:24;;;;;;;12.80;10.70;;;29.00;97.90;;;;;;5136801;27;20046;-72
2022/07/26 03:43:52;;;;;;;13.55;9.98;;;29.00;97.90;;;;;;5118952;27;20074;-72
2022/07/26 03:46:19;;;;;;;13.43;9.35;;;29.00;97.90;;;;;;5141460;27;20186;-72
2022/07/26 03:48:46;;;;;;;13.75;10.77;;;29.00;98.00;;;;;;5152299;27;20111;-72
2022/07/26 03:51:14;;;;;;;14.07;10.85;;;29.10;98.10;;;;;;5133295;27;20043;-72
2022/07/26 03:53:41;;;;;;;15.07;10.93;;;29.00;97.90;;;;;;5132297;27;20078;-72
2022/07/26 03:56:27;;;;;;;12.85;11.52;;;29.00;97.90;;;;;;5151379;27;20095;-72
2022/07/26 03:58:56;;;;;;;;;;;29.00;97.90;;;;;;5119384;27;20039;-72
2022/07/26 04:01:24;;;;;;;12.85;11.38;;;29.00;97.90;;;;;;5120387;27;19979;-72
2022/07/26 04:03:51;;;;;;;13.38;11.48;;;29.10;97.90;;;;;;5137281;27;20506;-72
2022/07/26 04:06:19;;;;;;;13.25;11.10;;;29.10;98.00;;;;;;5137758;27;20057;-72
2022/07/26 04:08:47;;;;;;;12.50;10.48;;;29.20;98.10;;;;;;5120328;27;20089;-73
2022/07/26 04:11:14;;;;;;;12.23;11.00;;;29.20;98.10;;;;;;5120590;27;20149;-71
2022/07/26 04:13:42;;;;;;;13.65;9.77;;;29.20;98.20;;;;;;5137186;27;20053;-70
2022/07/26 04:16:10;;;;;;;13.10;10.43;;;29.30;98.20;;;;;;5137383;27;20059;-70
2022/07/26 04:18:37;;;;;;;11.90;10.18;;;29.30;98.20;;;;;;5120277;27;20050;-70
2022/07/26 04:21:05;;;;;;;12.73;11.43;;;29.40;98.10;;;;;;5137442;27;20046;-70
2022/07/26 04:23:32;;;;;;;12.32;10.32;;;29.40;98.00;;;;;;5120179;27;20141;-71
2022/07/26 04:26:00;;;;;;;11.65;9.48;;;29.50;97.90;;;;;;5155581;27;20042;-71
2022/07/26 04:28:27;;;;;;;13.40;10.43;;;29.60;97.90;;;;;;5155524;27;20035;-71
2022/07/26 04:30:56;;;;;;;13.38;10.82;;;29.70;97.80;;;;;;5136947;27;20484;-72
2022/07/26 04:33:24;;;;;;;15.32;10.68;;;29.70;97.70;;;;;;5136716;27;20038;-71
2022/07/26 04:35:52;;;;;;;12.15;10.70;;;29.80;97.60;;;;;;5136668;27;20393;-71
2022/07/26 04:38:20;;;;;;;15.52;13.27;;;29.90;97.50;;;;;;5103000;27;20430;-71
2022/07/26 04:40:49;;;;;;;14.02;10.68;;;30.00;97.40;;;;;;5120024;27;20655;-72
2022/07/26 04:43:17;;;;;;;10.95;9.57;;;30.00;97.30;;;;;;5147178;27;20154;-72
2022/07/26 04:45:45;;;;;;;11.90;10.00;;;30.10;97.40;;;;;;5140265;27;20042;-72
2022/07/26 04:48:14;;;;;;;17.33;10.52;;;30.10;97.20;;;;;;5157656;27;20035;-72
2022/07/26 04:50:42;;;;;;;13.30;9.85;;;30.30;97.30;;;;;;5157335;27;20042;-72
2022/07/26 04:53:10;;;;;;;14.18;9.65;;;30.40;97.30;;;;;;5157499;27;20448;-72
2022/07/26 04:55:38;;;;;;;12.65;9.50;;;30.50;97.40;;;;;;5176032;27;20129;-72
2022/07/26 04:58:07;;;;;;;10.05;8.88;;;30.60;96.90;;;;;;5140123;27;20136;-72
2022/07/26 05:00:36;;;;;;;10.20;9.02;;;30.70;96.90;;;;;;5140059;27;20049;-72
2022/07/26 05:03:13;;;;;;;10.93;9.70;;;30.80;96.70;;;;;;5139875;27;20050;-72
2022/07/26 05:05:41;;;;;;;10.80;9.18;;;31.00;96.70;;;;;;5140249;27;20046;-72
2022/07/26 05:08:14;;;;;;;12.02;10.38;;;31.10;96.80;;;;;;5157427;27;20050;-72
2022/07/26 05:10:43;;;;;;;9.90;8.90;;;31.20;96.60;;;;;;5138745;27;20046;-72
2022/07/26 05:13:14;;;;;;;12.80;9.73;;;31.30;96.50;;;;;;5157034;27;20071;-72
2022/07/26 05:15:44;;;;;;;11.93;9.60;;;31.40;96.40;;;;;;5156981;27;20042;-72
2022/07/26 05:18:12;;;;;;;11.23;8.57;;;31.50;96.30;;;;;;5157193;27;20087;-72
2022/07/26 05:20:40;;;;;;;11.68;8.90;;;31.60;96.30;;;;;;5175568;27;20046;-72
2022/07/26 05:23:07;;;;;;;9.15;8.27;;;31.70;96.00;;;;;;5122594;27;20057;-72
2022/07/26 05:25:35;;;;;;;10.93;8.88;;;31.80;95.80;;;;;;5139666;27;20054;-72
2022/07/26 05:28:03;;;;;;;11.57;9.88;;;31.90;95.60;;;;;;5139318;27;20042;-72
2022/07/26 05:30:31;;;;;;;11.70;10.07;;;32.00;95.60;;;;;;5156655;27;20046;-72
2022/07/26 05:32:58;;;;;;;14.25;9.07;;;32.10;95.70;;;;;;5175358;27;20046;-71
2022/07/26 05:35:26;;;;;;;10.85;9.10;;;32.20;95.60;;;;;;5139272;27;20054;-71
2022/07/26 05:37:54;;;;;;;10.50;8.90;;;32.30;95.20;;;;;;5175075;27;20077;-72
2022/07/26 05:40:21;;;;;;;10.98;8.75;;;32.50;95.00;;;;;;5135639;27;20155;-72
2022/07/26 05:42:49;;;;;;;15.57;10.07;;;32.60;94.60;;;;;;5135830;27;20569;-72
2022/07/26 05:45:17;;;;;;;11.85;8.63;;;32.70;94.00;;;;;;5153141;27;20046;-72
2022/07/26 05:47:44;;;;;;;8.73;7.85;;;32.70;93.20;;;;;;5154091;27;20046;-72
2022/07/26 05:50:12;;;;;;;12.93;8.10;;;32.70;92.40;;;;;;5152978;27;20047;-72
2022/07/26 05:52:39;;;;;;;10.65;8.10;;;32.70;92.40;;;;;;5135308;27;20054;-72
2022/07/26 05:55:08;;;;;;;9.20;7.43;;;32.70;92.20;;;;;;5152893;27;20046;-72
2022/07/26 05:57:35;;;;;;;9.77;7.65;;;32.70;91.90;;;;;;5154086;27;20125;-72
2022/07/26 06:00:04;;;;;;;8.98;7.43;;;32.70;91.70;;;;;;5154087;27;20051;-72
2022/07/26 06:02:38;;;;;;;12.55;8.20;;;32.70;91.10;;;;;;5154354;27;20047;-72
2022/07/26 06:05:06;;;;;;;13.50;8.40;;;32.70;91.30;;;;;;5152718;27;20046;-72
2022/07/26 06:07:34;;;;;;;11.80;8.43;;;32.80;91.20;;;;;;5152460;27;20143;-72
2022/07/26 06:10:02;;;;;;;8.95;7.82;;;32.80;91.30;;;;;;5152126;27;20073;-72
2022/07/26 06:12:30;;;;;;;8.73;7.47;;;32.80;91.80;;;;;;5152472;27;20046;-72
2022/07/26 06:14:58;;;;;;;10.55;8.07;;;32.80;90.90;;;;;;5118618;27;20058;-72
2022/07/26 06:17:28;;;;;;;10.48;8.43;;;32.90;90.20;;;;;;5152406;27;20037;-72
2022/07/26 06:19:57;;;;;;;7.82;7.07;;;33.00;90.70;;;;;;5134977;27;20100;-72
2022/07/26 06:22:25;;;;;;;8.77;7.07;;;33.00;90.80;;;;;;5153159;27;20039;-72
2022/07/26 06:24:53;;;;;;;11.57;8.48;;;33.10;90.70;;;;;;5151847;27;20046;-72
2022/07/26 06:27:21;;;;;;;11.50;7.75;;;33.10;91.40;;;;;;5133460;27;20057;-72
2022/07/26 06:29:51;;;;;;;8.63;7.75;;;33.30;91.60;;;;;;5117585;27;20050;-72
2022/07/26 06:32:18;;;;;;;9.00;8.02;;;33.40;91.40;;;;;;5134847;27;20094;-72
2022/07/26 06:34:47;;;;;;;12.27;8.50;;;33.30;91.10;;;;;;5153356;27;20488;-72
2022/07/26 06:37:20;;;;;;;9.70;8.38;;;33.30;90.90;;;;;;5152226;27;20042;-72
2022/07/26 06:39:48;;;;;;;10.93;8.65;;;33.30;91.30;;;;;;5151882;27;20425;-72
2022/07/26 06:42:16;;;;;;;11.10;8.50;;;33.20;90.90;;;;;;5151827;27;20043;-72
2022/07/26 06:44:45;;;;;;;13.23;8.73;;;33.30;91.00;;;;;;5152107;27;20055;-72
2022/07/26 06:47:12;;;;;;;9.50;8.00;;;33.30;91.50;;;;;;5134971;27;20091;-72
2022/07/26 06:49:40;;;;;;;9.38;8.48;;;33.40;91.80;;;;;;5151569;27;20488;-73
2022/07/26 06:52:07;;;;;;;10.38;8.88;;;33.40;91.20;;;;;;5151472;27;20069;-72
2022/07/26 06:54:35;;;;;;;10.40;8.10;;;33.40;90.60;;;;;;5134518;27;20103;-72
2022/07/26 06:57:03;;;;;;;9.75;8.20;;;33.50;90.40;;;;;;5151710;27;20040;-72
2022/07/26 06:59:30;;;;;;;9.57;8.25;;;33.50;90.30;;;;;;5151576;27;20055;-72
2022/07/26 07:01:58;;;;;;;10.00;8.77;;;33.50;90.40;;;;;;5150961;27;20082;-72
2022/07/26 07:04:31;;;;;;;12.43;9.05;;;33.60;90.80;;;;;;5152692;27;20587;-72
2022/07/26 07:07:04;;;;;;;10.68;9.13;;;33.80;90.50;;;;;;5134150;27;20047;-72
2022/07/26 07:09:33;;;;;;;9.48;8.48;;;34.00;89.70;;;;;;5134643;27;20484;-72
2022/07/26 07:12:05;;;;;;;9.85;8.60;;;34.00;89.40;;;;;;5148590;27;20089;-72
2022/07/26 07:14:35;;;;;;;10.05;8.07;;;33.80;90.20;;;;;;5128400;27;20039;-72
2022/07/26 07:17:02;;;;;;;12.30;8.10;;;34.00;90.20;;;;;;5112056;27;20859;-72
2022/07/26 07:19:30;;;;;;;11.18;7.80;;;33.70;88.20;;;;;;5131273;27;20034;-72
2022/07/26 07:21:58;;;;;;;9.57;7.45;;;33.70;87.70;;;;;;5136885;27;20055;-72
2022/07/26 07:24:25;;;;;;;11.60;7.53;;;33.90;89.00;;;;;;5147053;27;20046;-72
2022/07/26 07:26:53;;;;;;;11.18;7.47;;;34.00;88.20;;;;;;5138128;27;20125;-73
2022/07/26 07:29:21;;;;;;;9.50;7.47;;;34.20;86.40;;;;;;5111181;27;20046;-72
2022/07/26 07:31:48;;;;;;;10.18;7.38;;;34.30;86.40;;;;;;5111997;27;20738;-72
2022/07/26 07:34:19;;;;;;;8.40;7.22;;;34.30;85.10;;;;;;5139202;27;20404;-72
2022/07/26 07:36:47;;;;;;;8.55;6.75;;;34.50;84.90;;;;;;5112246;27;20123;-72
2022/07/26 07:39:16;;;;;;;8.77;7.30;;;34.50;82.30;;;;;;5121777;27;20047;-73
2022/07/26 07:41:47;;;;;;;9.63;7.40;;;34.60;81.20;;;;;;5128848;27;20133;-73
2022/07/26 07:44:16;;;;;;;10.95;6.90;;;34.80;80.80;;;;;;5128193;27;20138;-73
2022/07/26 07:46:44;;;;;;;8.75;7.85;;;35.00;79.20;;;;;;5095329;28;20051;-73
2022/07/26 07:49:11;;;;;;;8.82;6.72;;;35.10;77.20;;;;;;5134295;27;20039;-71
2022/07/26 07:51:39;;;;;;;9.98;7.25;;;35.30;77.30;;;;;;5130144;28;20043;-71
2022/07/26 07:54:07;;;;;;;7.90;7.10;;;35.50;77.40;;;;;;5129810;28;20679;-72
2022/07/26 07:56:35;;;;;;;11.90;7.32;;;35.70;76.90;;;;;;5112795;28;20452;-72
2022/07/26 07:59:03;;;;;;;8.65;7.75;;;35.80;77.10;;;;;;5113269;28;20066;-73
2022/07/26 08:01:31;;;;;;;8.95;7.07;;;35.90;74.90;;;;;;5131052;28;20043;-72
2022/07/26 08:03:59;;;;;;;11.07;7.50;;;36.00;74.80;;;;;;5113036;28;20449;-71
2022/07/26 08:06:26;;;;;;;10.07;7.10;;;35.90;73.50;;;;;;5129847;28;20515;-71
2022/07/26 08:08:54;;;;;;;8.43;7.05;;;35.90;73.80;;;;;;5112703;28;20074;-72
2022/07/26 08:11:21;;;;;;;8.95;6.93;;;35.90;75.20;;;;;;5112806;28;20400;-72
2022/07/26 08:13:49;;;;;;;13.88;7.75;;;36.00;74.90;;;;;;5129359;28;20050;-72
2022/07/26 08:16:17;;;;;;;12.10;7.30;;;36.10;74.30;;;;;;5096251;28;20138;-72
2022/07/26 08:18:44;;;;;;;9.00;6.80;;;36.10;73.60;;;;;;5113215;28;20124;-72
2022/07/26 08:21:22;;;;;;;8.95;7.80;;;36.20;73.20;;;;;;5127048;27;20054;-72
2022/07/26 08:23:49;;;;;;;9.63;7.78;;;36.40;73.40;;;;;;5150517;27;20069;-71
2022/07/26 08:26:17;;;;;;;11.43;7.45;;;36.30;73.40;;;;;;5150581;27;20540;-72
2022/07/26 08:28:45;;;;;;;9.10;7.30;;;36.30;72.40;;;;;;5133115;27;20054;-71
2022/07/26 08:31:14;;;;;;;8.30;7.35;;;36.40;71.20;;;;;;5150436;27;20042;-71
2022/07/26 08:33:42;;;;;;;7.93;6.88;;;36.40;71.20;;;;;;5115729;27;20043;-71
2022/07/26 08:36:09;;;;;;;9.23;7.30;;;36.40;70.30;;;;;;5151803;27;20492;-71
2022/07/26 08:38:37;;;;;;;9.70;7.30;;;36.30;71.70;;;;;;5133089;27;20112;-72
2022/07/26 08:41:05;;;;;;;9.00;6.70;;;36.30;72.00;;;;;;5151548;27;20056;-72
2022/07/26 08:43:33;;;;;;;8.40;7.43;;;36.30;71.80;;;;;;5133648;27;20072;-72
2022/07/26 08:46:01;;;;;;;7.78;6.97;;;36.30;70.80;;;;;;5155303;27;20035;-72
2022/07/26 08:48:29;;;;;;;8.18;7.38;;;36.40;70.80;;;;;;5153833;27;20067;-72
2022/07/26 08:50:59;;;;;;;9.82;6.68;;;36.40;70.40;;;;;;5136896;27;20043;-72
2022/07/26 08:53:29;;;;;;;9.45;7.70;;;36.50;70.50;;;;;;5155122;27;20561;-72
2022/07/26 08:55:56;;;;;;;8.88;7.50;;;36.60;70.10;;;;;;5153716;27;20043;-72
2022/07/26 08:58:39;;;;;;;15.95;7.43;;;36.70;69.80;;;;;;5155341;27;20046;-73
2022/07/26 09:01:11;;;;;;;11.20;7.38;;;36.70;69.00;;;;;;5154248;27;20484;-72
2022/07/26 09:03:40;;;;;;;8.75;6.85;;;36.60;68.90;;;;;;5155300;27;20039;-71
2022/07/26 09:06:14;;;;;;;7.10;6.40;;;36.40;68.90;;;;;;5136879;27;20111;-72
2022/07/26 09:08:45;;;;;;;10.25;7.60;;;36.50;68.70;;;;;;5119750;27;20046;-72
2022/07/26 09:11:22;;;;;;;9.00;6.38;;;36.50;68.60;;;;;;5119382;27;20396;-72
2022/07/26 09:13:52;;;;;;;12.50;6.80;;;36.70;68.50;;;;;;5119204;27;20400;-72
2022/07/26 09:16:20;;;;;;;10.82;7.78;;;36.80;68.10;;;;;;5119392;27;20099;-73
2022/07/26 09:18:48;;;;;;;9.80;7.45;;;36.90;68.00;;;;;;5136453;27;20046;-71
2022/07/26 09:21:30;;;;;;;8.20;6.30;;;36.90;67.60;;;;;;5151262;27;20111;-71
2022/07/26 09:23:59;;;;;;;10.13;6.68;;;37.00;66.70;;;;;;5136122;27;20034;-72
2022/07/26 09:26:27;;;;;;;9.05;6.40;;;37.00;66.90;;;;;;5152802;27;20519;-71
2022/07/26 09:29:11;;;;;;;10.10;6.75;;;37.10;66.10;;;;;;5136231;27;20049;-73
2022/07/26 09:31:39;;;;;;;11.52;7.35;;;37.20;66.10;;;;;;5136413;27;20065;-72
2022/07/26 09:34:07;;;;;;;8.05;7.25;;;37.20;66.20;;;;;;5153078;27;20476;-72
2022/07/26 09:36:50;;;;;;;8.00;6.90;;;37.30;65.60;;;;;;5153173;27;20042;-71
2022/07/26 09:39:20;;;;;;;8.93;6.75;;;37.30;64.80;;;;;;5118666;27;20154;-72
2022/07/26 09:41:47;;;;;;;8.85;7.10;;;37.10;64.60;;;;;;5152966;27;20703;-71
2022/07/26 09:44:24;;;;;;;8.30;6.68;;;37.10;64.80;;;;;;5136250;27;20050;-71
2022/07/26 09:46:56;;;;;;;10.02;6.93;;;37.10;64.90;;;;;;5135858;27;20137;-71
2022/07/26 09:49:25;;;;;;;11.85;6.45;;;37.30;64.90;;;;;;5118955;27;20052;-72
2022/07/26 09:51:55;;;;;;;7.40;6.50;;;37.30;64.50;;;;;;5153995;27;20129;-72
2022/07/26 09:54:31;;;;;;;11.60;7.43;;;37.40;64.20;;;;;;5152979;27;20066;-72
2022/07/26 09:56:59;;;;;;;13.68;7.90;;;37.30;65.30;;;;;;5134779;27;20838;-71
2022/07/26 09:59:28;;;;;;;7.95;7.00;;;37.30;65.80;;;;;;5135933;27;20217;-72
2022/07/26 10:01:57;;;;;;;12.60;7.05;;;37.20;66.50;;;;;;5118146;27;20052;-72
2022/07/26 10:04:26;;;;;;;7.15;6.45;;;37.40;67.30;;;;;;5152753;27;20392;-72
2022/07/26 10:06:56;;;;;;;10.15;8.23;;;37.20;66.60;;;;;;5153923;27;20042;-72
2022/07/26 10:09:29;;;;;;;9.88;7.75;;;37.30;67.10;;;;;;5152537;27;20046;-71
2022/07/26 10:12:05;;;;;;;8.88;7.68;;;37.20;67.90;;;;;;5152199;27;20046;-72
2022/07/26 10:14:37;;;;;;;8.77;7.75;;;37.30;68.00;;;;;;5150025;27;20090;-71
2022/07/26 10:17:34;;;;;;;7.82;6.57;;;37.30;67.50;;;;;;5153802;27;20039;-71
2022/07/26 10:20:07;;;;;;;10.60;7.10;;;37.30;67.00;;;;;;5118281;27;20047;-71
2022/07/26 10:22:44;;;;;;;8.20;7.25;;;37.20;67.10;;;;;;5135108;27;20549;-71
2022/07/26 10:25:17;;;;;;;9.68;8.00;;;37.20;67.30;;;;;;5151513;27;20793;-71
2022/07/26 10:27:56;;;;;;;8.73;7.82;;;37.20;66.90;;;;;;5150399;27;20058;-71
2022/07/26 10:30:26;;;;;;;9.30;7.32;;;37.20;66.50;;;;;;5150590;27;20051;-72
2022/07/26 10:33:01;;;;;;;11.43;7.53;;;37.00;66.00;;;;;;5135766;27;20047;-72
2022/07/26 10:35:42;;;;;;;9.40;7.60;;;36.80;66.00;;;;;;5152083;27;20074;-71
2022/07/26 10:38:21;;;;;;;9.10;7.55;;;36.80;66.70;;;;;;5151096;27;20051;-71
2022/07/26 10:41:07;;;;;;;7.40;6.57;;;36.80;66.30;;;;;;5155481;27;20042;-71
2022/07/26 10:43:35;;;;;;;10.95;8.23;;;36.80;66.00;;;;;;5138174;27;20052;-71
2022/07/26 10:46:18;;;;;;;8.35;6.20;;;36.80;65.70;;;;;;5155208;27;20069;-71
2022/07/26 10:49:03;;;;;;;7.50;6.15;;;36.60;65.60;;;;;;5155177;27;20049;-71
2022/07/26 10:51:36;;;;;;;8.75;6.88;;;36.40;65.60;;;;;;5155081;27;20520;-71
2022/07/26 10:54:10;;;;;;;9.70;8.07;;;36.40;65.60;;;;;;5154882;27;20099;-71
2022/07/26 10:56:38;;;;;;;10.07;6.63;;;36.50;66.00;;;;;;5154535;27;20046;-71
2022/07/26 10:59:06;;;;;;;8.30;7.03;;;36.60;65.70;;;;;;5137346;27;20545;-72
2022/07/26 11:01:39;;;;;;;8.90;7.05;;;36.60;65.80;;;;;;5120645;27;20077;-72
2022/07/26 11:04:21;;;;;;;9.35;6.85;;;36.70;65.90;;;;;;5152782;27;20393;-71
2022/07/26 11:06:49;;;;;;;9.20;6.72;;;37.00;65.80;;;;;;5136458;27;20073;-72
2022/07/26 11:09:20;;;;;;;12.10;7.78;;;37.10;65.00;;;;;;5154835;27;20045;-72
2022/07/26 11:11:50;;;;;;;7.95;6.97;;;37.30;64.90;;;;;;5137350;27;20490;-71
2022/07/26 11:14:18;;;;;;;8.30;6.75;;;37.10;64.60;;;;;;5137660;27;20050;-71
2022/07/26 11:16:48;;;;;;;10.45;7.13;;;37.10;64.60;;;;;;5137738;27;20476;-71
2022/07/26 11:19:24;;;;;;;7.28;6.40;;;37.10;64.60;;;;;;5137427;27;20050;-71
2022/07/26 11:22:01;;;;;;;11.35;6.95;;;37.10;64.90;;;;;;5137091;27;20042;-72
2022/07/26 11:24:29;;;;;;;10.05;7.63;;;37.00;64.90;;;;;;5173188;27;20050;-71
2022/07/26 11:27:02;;;;;;;8.23;6.95;;;36.90;64.70;;;;;;5154484;27;20042;-72
2022/07/26 11:29:33;;;;;;;9.25;7.53;;;36.90;64.60;;;;;;5137559;27;20107;-71
2022/07/26 11:32:01;;;;;;;8.85;7.07;;;36.80;64.60;;;;;;5172845;27;20051;-72
2022/07/26 11:34:32;;;;;;;9.00;7.32;;;36.80;64.50;;;;;;5154791;27;20038;-71
2022/07/26 11:37:03;;;;;;;7.68;6.90;;;36.60;64.50;;;;;;5136821;27;20495;-72
2022/07/26 11:39:33;;;;;;;10.70;7.90;;;36.50;64.30;;;;;;5137357;27;20133;-71
2022/07/26 11:42:07;;;;;;;11.00;7.90;;;36.50;64.40;;;;;;5120294;27;20061;-72
2022/07/26 11:44:36;;;;;;;10.30;7.25;;;36.40;64.50;;;;;;5154668;27;20042;-72
2022/07/26 11:47:16;;;;;;;11.35;8.00;;;36.40;64.10;;;;;;5120390;27;20408;-72
2022/07/26 11:49:44;;;;;;;11.85;8.63;;;36.30;64.00;;;;;;5154303;27;20057;-72
2022/07/26 11:52:16;;;;;;;10.52;7.90;;;36.00;64.10;;;;;;5155034;27;20070;-72
2022/07/26 11:54:51;;;;;;;8.00;7.20;;;35.90;64.30;;;;;;5154536;27;20042;-72
2022/07/26 11:57:19;;;;;;;11.00;8.00;;;35.80;64.60;;;;;;5137112;27;20042;-72
2022/07/26 11:59:49;;;;;;;10.00;7.80;;;35.70;64.80;;;;;;5136856;27;20432;-72
2022/07/26 12:02:20;;;;;;;13.82;8.50;;;35.70;65.00;;;;;;5153800;27;20049;-72
2022/07/26 12:04:48;;;;;;;12.70;8.30;;;35.60;65.10;;;;;;5116978;27;20049;-72
2022/07/26 12:07:20;;;;;;;9.10;7.85;;;35.70;65.30;;;;;;5133168;27;20039;-72
2022/07/26 12:09:50;;;;;;;10.80;8.00;;;35.80;65.30;;;;;;5115945;27;20042;-73
2022/07/26 12:12:30;;;;;;;8.65;7.00;;;35.90;65.30;;;;;;5151620;27;20038;-72
2022/07/26 12:15:04;;;;;;;8.88;7.93;;;35.70;65.20;;;;;;5116386;27;20095;-72
2022/07/26 12:17:33;;;;;;;12.10;7.80;;;35.60;65.60;;;;;;5133321;27;20547;-71
2022/07/26 12:20:12;;;;;;;9.15;8.00;;;35.70;65.50;;;;;;5135634;27;20110;-71
2022/07/26 12:22:40;;;;;;;9.52;7.53;;;35.70;65.40;;;;;;5120554;27;20499;-71
2022/07/26 12:25:08;;;;;;;10.38;7.45;;;35.60;65.20;;;;;;5137402;27;20099;-71
2022/07/26 12:27:44;;;;;;;10.90;8.13;;;35.50;65.20;;;;;;5119888;27;20077;-71
2022/07/26 12:30:14;;;;;;;8.05;7.32;;;35.60;65.30;;;;;;5119831;27;20057;-71
2022/07/26 12:32:47;;;;;;;8.65;7.53;;;35.60;65.00;;;;;;5120576;27;20058;-72
2022/07/26 12:35:24;;;;;;;9.20;7.22;;;35.70;64.90;;;;;;5136738;27;20374;-72
2022/07/26 12:37:52;;;;;;;9.52;7.80;;;35.80;64.60;;;;;;5120010;27;20046;-71
2022/07/26 12:40:25;;;;;;;14.90;7.57;;;35.80;64.40;;;;;;5155392;27;20054;-71
2022/07/26 12:42:55;;;;;;;9.80;7.93;;;35.80;64.40;;;;;;5155685;27;20077;-71
2022/07/26 12:45:31;;;;;;;9.15;7.15;;;35.90;64.30;;;;;;5119730;27;20051;-71
2022/07/26 12:48:01;;;;;;;8.48;6.93;;;35.90;63.90;;;;;;5136763;27;20053;-72
2022/07/26 12:50:30;;;;;;;10.02;8.18;;;36.00;64.00;;;;;;5120019;27;20442;-71
2022/07/26 12:53:05;;;;;;;11.00;7.13;;;36.00;64.00;;;;;;5136772;27;20385;-71